Time;durP1;ratioP1;P1;durP2;ratioP2;P2;SDS_P1;SDS_P2;PMS_P1;PMS_P2;Temp;Humidity;BMP_temperature;BMP_pressure;BME280_temperature;BME280_humidity;BME280_pressure;Samples;Min_cycle;Max_cycle;Signal;HPM_P1;HPM_P2
2023/10/01 00:00:11;;;;;;;13.13;9.57;;;14.70;99.90;;;;;;5108451;27;20051;-86
2023/10/01 00:02:37;;;;;;;18.02;10.38;;;14.70;99.90;;;;;;5107621;28;20050;-86
2023/10/01 00:05:07;;;;;;;12.70;8.75;;;14.60;99.90;;;;;;5100852;28;20612;-86
2023/10/01 00:07:37;;;;;;;15.55;10.32;;;14.60;99.90;;;;;;5100166;28;20054;-86
2023/10/01 00:10:11;;;;;;;16.02;10.15;;;14.60;99.90;;;;;;5090815;28;20039;-87
2023/10/01 00:12:38;;;;;;;14.52;10.07;;;14.60;99.90;;;;;;5092184;28;20107;-87
2023/10/01 00:15:05;;;;;;;14.38;9.40;;;14.90;99.90;;;;;;5094049;28;20096;-87
2023/10/01 00:17:31;;;;;;;11.73;8.98;;;14.50;99.90;;;;;;5102457;28;20043;-86
2023/10/01 00:19:57;;;;;;;13.95;10.07;;;14.50;99.90;;;;;;5090085;28;20498;-87
2023/10/01 00:22:23;;;;;;;14.48;9.77;;;14.40;99.90;;;;;;5100542;28;20036;-86
2023/10/01 00:24:48;;;;;;;15.73;10.00;;;14.40;99.90;;;;;;5071632;28;20681;-86
2023/10/01 00:27:14;;;;;;;16.75;10.30;;;14.40;99.90;;;;;;5094077;28;20135;-86
2023/10/01 00:29:43;;;;;;;13.45;9.15;;;14.40;99.90;;;;;;5077844;28;20089;-86
2023/10/01 00:32:08;;;;;;;15.35;9.50;;;14.30;99.90;;;;;;5093426;28;20047;-87
2023/10/01 00:34:34;;;;;;;20.25;11.10;;;14.30;99.90;;;;;;5099720;28;20054;-86
2023/10/01 00:37:00;;;;;;;13.98;9.98;;;14.30;99.90;;;;;;5107594;28;20073;-86
2023/10/01 00:39:25;;;;;;;14.75;10.48;;;14.30;99.90;;;;;;5087648;28;20047;-86
2023/10/01 00:41:52;;;;;;;12.82;9.70;;;14.90;99.90;;;;;;5103568;28;20058;-86
2023/10/01 00:44:18;;;;;;;17.27;10.48;;;14.30;99.90;;;;;;5069461;28;20040;-86
2023/10/01 00:46:43;;;;;;;16.17;11.10;;;14.30;99.90;;;;;;5078381;28;20044;-86
2023/10/01 00:49:09;;;;;;;16.80;10.18;;;14.30;99.90;;;;;;5086112;28;20055;-87
2023/10/01 00:51:35;;;;;;;15.98;11.30;;;14.40;99.90;;;;;;5099936;28;20074;-86
2023/10/01 00:54:02;;;;;;;13.57;9.38;;;14.20;99.90;;;;;;5068927;28;20503;-86
2023/10/01 00:56:28;;;;;;;14.70;10.90;;;14.20;99.90;;;;;;5103009;28;20076;-86
2023/10/01 00:58:54;;;;;;;16.17;10.82;;;14.20;99.90;;;;;;5089295;28;20040;-87
2023/10/01 01:01:25;;;;;;;15.77;10.75;;;14.20;99.90;;;;;;5099326;28;20383;-86
2023/10/01 01:03:52;;;;;;;13.35;10.15;;;14.20;99.90;;;;;;5080804;28;20040;-87
2023/10/01 01:06:23;;;;;;;15.35;9.95;;;14.20;99.90;;;;;;5088836;28;20052;-87
2023/10/01 01:08:54;;;;;;;15.45;10.40;;;14.20;99.90;;;;;;5091395;28;20414;-87
2023/10/01 01:11:21;;;;;;;16.65;11.50;;;14.10;99.90;;;;;;5090113;28;20429;-87
2023/10/01 01:13:50;;;;;;;15.15;10.73;;;14.20;99.90;;;;;;5104435;28;20112;-87
2023/10/01 01:16:19;;;;;;;20.25;10.98;;;14.70;99.90;;;;;;5097728;28;20036;-87
2023/10/01 01:18:47;;;;;;;15.10;10.50;;;14.20;99.90;;;;;;5089048;28;20419;-87
2023/10/01 01:21:13;;;;;;;14.80;10.52;;;14.20;99.90;;;;;;5088802;28;20044;-86
2023/10/01 01:23:45;;;;;;;16.75;10.55;;;14.20;99.90;;;;;;5094355;28;20075;-87
2023/10/01 01:26:13;;;;;;;16.23;10.93;;;14.20;99.90;;;;;;5075136;28;20043;-87
2023/10/01 01:28:41;;;;;;;17.45;11.50;;;14.20;99.90;;;;;;5096298;28;20122;-87
2023/10/01 01:31:08;;;;;;;15.73;10.57;;;14.30;99.90;;;;;;5078911;28;20534;-87
2023/10/01 01:33:40;;;;;;;16.10;11.60;;;14.30;99.90;;;;;;5105698;28;20042;-87
2023/10/01 01:36:09;;;;;;;16.40;10.98;;;14.30;99.90;;;;;;5101110;28;20048;-87
2023/10/01 01:38:37;;;;;;;14.80;11.73;;;14.40;99.90;;;;;;5096071;28;20056;-87
2023/10/01 01:41:04;;;;;;;15.02;10.45;;;14.30;99.90;;;;;;5087766;28;20040;-86
2023/10/01 01:43:30;;;;;;;15.55;10.48;;;14.20;99.90;;;;;;5095953;28;20506;-86
2023/10/01 01:46:03;;;;;;;15.45;10.43;;;14.30;99.90;;;;;;5093830;28;20043;-86
2023/10/01 01:51:00;;;;;;;13.73;10.93;;;15.10;99.90;;;;;;5101652;28;20723;-86
2023/10/01 01:53:26;;;;;;;16.27;11.30;;;14.90;99.90;;;;;;5097747;28;20040;-87
2023/10/01 01:55:56;;;;;;;14.82;10.70;;;14.30;99.90;;;;;;5097811;28;20040;-87
2023/10/01 01:58:25;;;;;;;18.42;11.68;;;14.40;99.90;;;;;;5095350;28;20048;-87
2023/10/01 02:03:37;;;;;;;15.10;11.38;;;14.40;99.90;;;;;;5094373;28;20239;-86
2023/10/01 02:06:07;;;;;;;16.67;11.77;;;14.40;99.90;;;;;;5090609;28;20071;-86
2023/10/01 02:08:49;;;;;;;14.98;11.65;;;14.50;99.90;;;;;;5093702;28;20063;-85
2023/10/01 02:11:18;;;;;;;15.23;11.52;;;14.40;99.90;;;;;;5087649;28;20056;-86
2023/10/01 02:13:46;;;;;;;15.93;10.98;;;15.10;99.90;;;;;;5087302;28;20735;-86
2023/10/01 02:18:57;;;;;;;14.70;11.10;;;14.40;99.90;;;;;;5106661;28;20131;-87
2023/10/01 02:21:42;;;;;;;16.73;11.43;;;14.40;99.90;;;;;;5106397;28;20093;-86
2023/10/01 02:25:00;;;;;;;16.10;11.15;;;14.50;99.90;;;;;;5100130;28;20039;-85
2023/10/01 02:27:05;;;;;;;18.95;11.50;;;15.20;99.90;;;;;;5079164;28;20091;-86
2023/10/01 02:29:32;;;;;;;12.70;10.23;;;14.80;99.90;;;;;;5087431;28;20128;-87
2023/10/01 02:32:04;;;;;;;17.60;11.73;;;14.50;99.90;;;;;;5107881;28;20524;-86
2023/10/01 02:34:31;;;;;;;15.52;11.15;;;14.50;99.90;;;;;;5106961;28;20440;-87
2023/10/01 02:36:58;;;;;;;17.13;11.68;;;14.50;99.90;;;;;;5093140;28;20054;-86
2023/10/01 02:39:29;;;;;;;17.08;11.63;;;14.50;99.90;;;;;;5086283;28;20197;-86
2023/10/01 02:44:38;;;;;;;15.38;11.77;;;14.50;99.90;;;;;;5087099;28;20411;-87
2023/10/01 02:47:17;;;;;;;16.25;11.63;;;14.50;99.90;;;;;;5070809;28;20055;-86
2023/10/01 02:49:50;;;;;;;14.35;11.00;;;14.50;99.90;;;;;;5092277;28;20446;-87
2023/10/01 02:52:17;;;;;;;14.05;11.05;;;14.50;99.90;;;;;;5075958;28;20079;-86
2023/10/01 02:54:44;;;;;;;15.02;11.52;;;14.50;99.90;;;;;;5092636;28;20122;-87
2023/10/01 02:57:13;;;;;;;16.15;10.82;;;14.50;99.90;;;;;;5098349;28;20040;-86
2023/10/01 03:02:31;;;;;;;12.57;10.63;;;14.50;99.90;;;;;;5107293;28;20051;-87
2023/10/01 03:05:05;;;;;;;15.23;11.23;;;15.20;99.90;;;;;;5089505;28;20035;-87
2023/10/01 03:07:38;;;;;;;15.70;11.18;;;14.50;99.90;;;;;;5090067;28;20046;-86
2023/10/01 03:10:29;;;;;;;14.73;10.95;;;14.50;99.90;;;;;;5074890;28;20052;-87
2023/10/01 03:12:57;;;;;;;13.48;10.65;;;14.50;99.90;;;;;;5069819;28;20048;-86
2023/10/01 03:15:35;;;;;;;14.35;10.75;;;14.50;99.90;;;;;;5095001;28;20116;-87
2023/10/01 03:18:07;;;;;;;15.35;10.90;;;14.50;99.90;;;;;;5087021;28;20079;-86
2023/10/01 03:23:12;;;;;;;16.45;11.18;;;14.50;99.90;;;;;;5103948;28;20056;-87
2023/10/01 03:25:56;;;;;;;17.52;11.60;;;14.50;99.90;;;;;;5073046;28;20040;-86
2023/10/01 03:28:28;;;;;;;13.02;10.80;;;14.60;99.90;;;;;;5079191;28;20506;-86
2023/10/01 03:31:06;;;;;;;;;;;15.50;99.90;;;;;;5085848;28;20043;-86
2023/10/01 03:33:33;;;;;;;16.85;11.55;;;14.70;99.90;;;;;;5106131;28;19945;-87
2023/10/01 03:35:59;;;;;;;17.50;11.50;;;15.20;99.90;;;;;;5094116;28;20510;-86
2023/10/01 03:38:24;;;;;;;14.38;11.07;;;14.50;99.90;;;;;;5103787;28;20146;-87
2023/10/01 03:41:08;;;;;;;14.20;11.63;;;14.90;99.90;;;;;;5096055;28;20535;-87
2023/10/01 03:43:36;;;;;;;18.23;11.88;;;14.60;99.90;;;;;;5098029;28;20051;-87
2023/10/01 03:46:13;;;;;;;15.35;10.88;;;14.50;99.90;;;;;;5095515;28;20039;-86
2023/10/01 03:51:29;;;;;;;15.60;11.20;;;14.60;99.90;;;;;;5092694;28;20499;-86
2023/10/01 03:54:06;;;;;;;15.80;11.25;;;14.60;99.90;;;;;;5069089;28;20059;-86
2023/10/01 03:56:33;;;;;;;14.50;11.30;;;14.60;99.90;;;;;;5085863;28;20051;-87
2023/10/01 03:58:59;;;;;;;13.10;10.40;;;15.00;99.90;;;;;;5086693;28;20055;-86
2023/10/01 04:01:32;;;;;;;15.65;10.80;;;14.60;99.90;;;;;;5086143;28;20052;-87
2023/10/01 04:04:00;;;;;;;14.55;11.10;;;14.60;99.90;;;;;;5069145;28;20594;-87
2023/10/01 04:06:27;;;;;;;15.55;10.50;;;14.70;99.90;;;;;;5089140;28;20162;-87
2023/10/01 04:08:55;;;;;;;15.18;10.43;;;14.60;99.90;;;;;;5085792;28;20400;-86
2023/10/01 04:11:41;;;;;;;13.02;10.45;;;14.60;99.90;;;;;;5097885;28;20048;-86
2023/10/01 04:14:10;;;;;;;17.85;10.20;;;14.40;99.90;;;;;;5093595;28;20055;-86
2023/10/01 04:16:36;;;;;;;12.63;10.25;;;14.60;99.90;;;;;;5080718;28;20594;-86
2023/10/01 04:19:03;;;;;;;13.25;10.32;;;15.20;99.90;;;;;;5073376;28;20079;-86
2023/10/01 04:21:28;;;;;;;14.68;10.13;;;14.60;99.90;;;;;;5084330;28;20708;-86
2023/10/01 04:23:54;;;;;;;14.07;10.00;;;14.60;99.90;;;;;;5085621;28;20044;-86
2023/10/01 04:26:22;;;;;;;14.50;10.10;;;14.60;99.90;;;;;;5089165;28;20457;-86
2023/10/01 04:28:59;;;;;;;12.57;10.18;;;14.60;99.90;;;;;;5085618;28;20147;-86
2023/10/01 04:31:48;;;;;;;14.38;10.70;;;14.60;99.90;;;;;;5069518;28;20043;-85
2023/10/01 04:34:17;;;;;;;11.82;9.63;;;15.40;99.90;;;;;;5098553;28;20506;-86
2023/10/01 04:36:44;;;;;;;15.40;9.88;;;14.60;99.90;;;;;;5090451;28;20495;-86
2023/10/01 04:39:11;;;;;;;17.50;9.95;;;14.60;99.90;;;;;;5088854;28;20048;-86
2023/10/01 04:41:39;;;;;;;12.82;9.55;;;14.60;99.90;;;;;;5097401;28;20051;-86
2023/10/01 04:44:08;;;;;;;16.55;10.48;;;14.70;99.90;;;;;;5100371;28;20052;-86
2023/10/01 04:46:38;;;;;;;13.63;10.38;;;14.60;99.90;;;;;;5108837;28;20078;-86
2023/10/01 04:49:27;;;;;;;11.95;9.52;;;14.10;99.90;;;;;;5098113;28;20047;-86
2023/10/01 04:52:01;;;;;;;16.20;9.98;;;14.60;99.90;;;;;;5084489;28;20145;-86
2023/10/01 04:54:28;;;;;;;13.13;9.70;;;14.60;99.90;;;;;;5100065;28;21107;-86
2023/10/01 04:56:57;;;;;;;13.95;9.32;;;14.60;99.90;;;;;;5103155;28;20047;-86
2023/10/01 04:59:24;;;;;;;13.82;9.20;;;14.60;99.90;;;;;;5109864;28;20078;-86
2023/10/01 05:01:56;;;;;;;13.25;9.90;;;14.60;99.90;;;;;;5095124;28;20161;-85
2023/10/01 05:04:26;;;;;;;15.70;9.73;;;14.60;99.90;;;;;;5084349;28;20565;-86
2023/10/01 05:07:00;;;;;;;13.38;8.73;;;14.60;99.90;;;;;;5104951;28;20070;-86
2023/10/01 05:09:28;;;;;;;13.13;9.30;;;14.60;99.90;;;;;;5100362;28;20135;-86
2023/10/01 05:11:55;;;;;;;14.90;9.77;;;14.60;99.90;;;;;;5088797;28;20542;-85
2023/10/01 05:14:22;;;;;;;15.68;10.23;;;14.60;99.90;;;;;;5088795;28;20048;-86
2023/10/01 05:16:49;;;;;;;13.20;9.68;;;14.60;99.90;;;;;;5074295;28;20075;-86
2023/10/01 05:19:15;;;;;;;12.63;9.32;;;14.60;99.90;;;;;;5089789;28;20530;-86
2023/10/01 05:21:49;;;;;;;14.07;9.93;;;14.60;99.90;;;;;;5104215;28;20047;-86
2023/10/01 05:24:35;;;;;;;13.15;9.05;;;14.60;99.90;;;;;;5092787;28;20040;-86
2023/10/01 05:27:08;;;;;;;13.80;9.35;;;14.60;99.90;;;;;;5082498;28;20078;-86
2023/10/01 05:29:42;;;;;;;14.43;9.38;;;14.60;99.90;;;;;;5104660;28;20051;-86
2023/10/01 05:32:10;;;;;;;13.10;9.73;;;15.60;99.90;;;;;;5088168;28;20052;-87
2023/10/01 05:34:38;;;;;;;12.95;9.23;;;15.00;99.90;;;;;;5101281;28;20111;-85
2023/10/01 05:37:09;;;;;;;13.18;9.25;;;14.60;99.90;;;;;;5090536;28;20098;-86
2023/10/01 05:42:25;;;;;;;12.27;8.95;;;14.70;99.90;;;;;;5087429;28;20407;-85
2023/10/01 05:44:52;;;;;;;13.77;9.05;;;14.60;99.90;;;;;;5087540;28;20353;-84
2023/10/01 05:47:17;;;;;;;13.77;8.75;;;14.60;99.90;;;;;;5100142;28;20071;-85
2023/10/01 05:49:49;;;;;;;12.40;9.48;;;15.30;99.90;;;;;;5103963;28;20078;-86
2023/10/01 05:52:18;;;;;;;14.27;8.90;;;15.60;99.90;;;;;;5090744;28;20116;-85
2023/10/01 05:54:53;;;;;;;14.70;8.45;;;14.60;99.90;;;;;;5089980;28;20044;-86
2023/10/01 05:57:21;;;;;;;12.38;8.52;;;14.60;99.90;;;;;;5088153;28;20048;-85
2023/10/01 05:59:56;;;;;;;14.18;8.48;;;14.60;99.90;;;;;;5073674;28;20052;-86
2023/10/01 06:07:55;;;;;;;13.05;8.23;;;14.70;99.90;;;;;;5093229;28;20040;-84
2023/10/01 06:10:35;;;;;;;13.73;8.60;;;14.70;99.90;;;;;;5089774;28;20044;-84
2023/10/01 06:13:06;;;;;;;12.05;8.18;;;15.00;99.90;;;;;;5081799;28;20044;-87
2023/10/01 06:15:33;;;;;;;16.53;9.23;;;14.70;99.90;;;;;;5070823;28;20044;-85
2023/10/01 06:18:05;;;;;;;12.27;8.18;;;14.70;99.90;;;;;;5083337;28;20042;-84
2023/10/01 06:20:33;;;;;;;14.30;7.80;;;14.70;99.90;;;;;;5095196;28;20044;-83
2023/10/01 06:22:59;;;;;;;14.23;7.78;;;14.80;99.90;;;;;;5091933;28;20133;-84
2023/10/01 06:25:40;;;;;;;15.32;7.80;;;14.80;99.90;;;;;;5087457;28;20063;-86
2023/10/01 06:28:09;;;;;;;12.75;7.88;;;14.80;99.90;;;;;;5070993;28;20044;-86
2023/10/01 06:30:40;;;;;;;13.15;7.70;;;14.90;99.90;;;;;;5096341;28;20052;-83
2023/10/01 06:33:09;;;;;;;11.88;7.82;;;14.90;99.90;;;;;;5094807;28;20044;-84
2023/10/01 06:35:56;;;;;;;12.15;7.20;;;15.40;99.90;;;;;;5102555;28;20047;-86
2023/10/01 06:38:21;;;;;;;14.05;7.88;;;15.10;99.90;;;;;;5085779;28;20055;-87
2023/10/01 06:40:47;;;;;;;15.23;8.07;;;14.90;99.90;;;;;;5087828;28;20052;-85
2023/10/01 06:43:15;;;;;;;10.50;7.43;;;15.00;99.90;;;;;;5098647;28;20043;-84
2023/10/01 06:45:41;;;;;;;14.15;8.23;;;14.90;99.90;;;;;;5107415;28;20075;-84
2023/10/01 06:48:14;;;;;;;11.73;7.80;;;14.90;99.90;;;;;;5106545;28;20067;-85
2023/10/01 06:50:40;;;;;;;13.35;8.60;;;14.90;99.90;;;;;;5096944;28;20120;-84
2023/10/01 06:53:07;;;;;;;15.43;7.90;;;14.90;99.90;;;;;;5088966;28;20044;-83
2023/10/01 06:55:36;;;;;;;13.32;7.78;;;14.90;99.90;;;;;;5087945;28;20040;-84
2023/10/01 06:58:06;;;;;;;12.60;8.95;;;15.00;99.90;;;;;;5107204;28;20072;-84
2023/10/01 07:00:35;;;;;;;18.75;8.55;;;15.00;99.90;;;;;;5107337;28;20036;-84
2023/10/01 07:03:23;;;;;;;12.88;7.38;;;15.00;99.90;;;;;;5105572;28;20047;-83
2023/10/01 07:05:55;;;;;;;13.85;8.00;;;15.00;99.90;;;;;;5100141;28;20043;-83
2023/10/01 07:08:37;;;;;;;16.00;7.95;;;15.00;99.90;;;;;;5099883;28;20146;-83
2023/10/01 07:11:11;;;;;;;14.80;7.72;;;15.80;99.90;;;;;;5103172;28;20566;-83
2023/10/01 07:13:38;;;;;;;15.25;7.75;;;15.10;99.90;;;;;;5105105;28;20035;-83
2023/10/01 07:16:04;;;;;;;12.65;8.05;;;15.10;99.90;;;;;;5095496;28;20697;-82
2023/10/01 07:18:30;;;;;;;12.18;7.90;;;15.20;99.90;;;;;;5089740;28;20054;-84
2023/10/01 07:21:00;;;;;;;11.77;7.85;;;15.20;99.90;;;;;;5091772;28;20179;-85
2023/10/01 07:23:26;;;;;;;15.52;8.45;;;15.20;99.90;;;;;;5094882;28;20518;-84
2023/10/01 07:26:01;;;;;;;12.38;7.88;;;15.30;99.90;;;;;;5091199;28;20066;-85
2023/10/01 07:28:27;;;;;;;13.68;7.88;;;15.30;99.90;;;;;;5072672;28;20036;-86
2023/10/01 07:30:56;;;;;;;11.45;7.20;;;15.10;99.90;;;;;;5107021;28;20453;-88
2023/10/01 07:33:22;;;;;;;13.00;8.40;;;15.40;99.90;;;;;;5106165;28;20051;-87
2023/10/01 07:36:01;;;;;;;13.15;8.02;;;15.50;99.90;;;;;;5105920;28;20071;-87
2023/10/01 07:38:48;;;;;;;13.18;7.80;;;15.50;99.90;;;;;;5084280;28;20051;-86
2023/10/01 07:41:16;;;;;;;13.57;7.82;;;15.50;99.90;;;;;;5087987;28;20139;-87
2023/10/01 07:43:45;;;;;;;12.18;7.25;;;15.50;99.90;;;;;;5088873;28;20498;-87
2023/10/01 07:46:12;;;;;;;14.77;8.07;;;15.50;99.90;;;;;;5105609;28;20050;-88
2023/10/01 07:48:47;;;;;;;13.40;7.10;;;15.50;99.90;;;;;;5105124;28;20047;-88
2023/10/01 07:51:30;;;;;;;12.80;7.47;;;15.60;99.90;;;;;;5079874;28;20047;-87
2023/10/01 07:54:02;;;;;;;13.05;7.35;;;15.60;99.90;;;;;;5086829;28;20055;-87
2023/10/01 07:56:28;;;;;;;10.73;6.53;;;15.70;99.90;;;;;;5088734;28;20165;-87
2023/10/01 07:58:57;;;;;;;10.95;6.93;;;15.70;99.90;;;;;;5106836;28;20126;-85
2023/10/01 08:01:38;;;;;;;10.02;6.60;;;15.80;99.90;;;;;;5095040;28;20064;-85
2023/10/01 08:04:08;;;;;;;11.88;7.05;;;15.90;99.90;;;;;;5085916;28;20052;-85
2023/10/01 08:06:42;;;;;;;17.05;7.25;;;16.00;99.90;;;;;;5071944;28;20036;-86
2023/10/01 08:09:15;;;;;;;11.75;7.93;;;16.00;99.90;;;;;;5090344;28;20107;-87
2023/10/01 08:11:58;;;;;;;10.82;6.78;;;16.50;99.90;;;;;;5095087;28;20123;-86
2023/10/01 08:14:33;;;;;;;12.80;6.97;;;16.70;99.90;;;;;;5105626;28;20631;-87
2023/10/01 08:17:00;;;;;;;12.43;7.05;;;16.30;99.90;;;;;;5088867;28;20040;-85
2023/10/01 08:19:44;;;;;;;12.48;6.82;;;16.40;99.90;;;;;;5095499;28;20499;-86
2023/10/01 08:22:14;;;;;;;13.02;6.93;;;16.40;99.90;;;;;;5085886;28;20529;-85
2023/10/01 08:24:49;;;;;;;10.68;6.43;;;16.50;99.90;;;;;;5087260;28;20123;-86
2023/10/01 08:27:29;;;;;;;13.30;7.32;;;16.50;99.90;;;;;;5086510;28;20106;-87
2023/10/01 08:32:49;;;;;;;13.93;6.88;;;16.50;99.90;;;;;;5096858;28;20127;-85
2023/10/01 08:35:23;;;;;;;;;;;16.50;99.90;;;;;;5085809;28;20056;-86
2023/10/01 08:37:49;;;;;;;14.13;6.88;;;16.60;99.90;;;;;;5091482;28;19924;-85
2023/10/01 08:40:17;;;;;;;11.20;7.22;;;16.60;99.90;;;;;;5111654;28;20405;-86
2023/10/01 08:42:47;;;;;;;13.95;7.25;;;16.60;99.90;;;;;;5115312;28;20048;-85
2023/10/01 08:45:17;;;;;;;11.40;7.03;;;16.60;99.90;;;;;;5089450;28;20418;-86
2023/10/01 08:47:45;;;;;;;12.95;7.28;;;17.20;99.90;;;;;;5099339;28;20074;-86
2023/10/01 08:50:19;;;;;;;11.57;7.22;;;16.80;99.90;;;;;;5089171;28;20040;-86
2023/10/01 08:52:52;;;;;;;11.43;6.88;;;16.90;99.90;;;;;;5099617;28;20680;-87
2023/10/01 08:55:35;;;;;;;10.10;6.55;;;16.80;99.90;;;;;;5092609;28;20035;-86
2023/10/01 08:58:48;;;;;;;11.07;6.28;;;17.20;99.90;;;;;;5098281;28;20088;-89
2023/10/01 09:01:14;;;;;;;13.80;7.45;;;17.10;99.90;;;;;;5086803;28;20452;-87
2023/10/01 09:03:47;;;;;;;12.20;7.00;;;17.30;99.90;;;;;;5107799;28;20055;-88
2023/10/01 09:06:28;;;;;;;10.95;6.57;;;17.70;99.90;;;;;;5075288;28;20100;-86
2023/10/01 09:08:56;;;;;;;15.10;7.80;;;17.60;99.90;;;;;;5091319;28;20101;-86
2023/10/01 09:11:35;;;;;;;13.10;6.60;;;17.60;99.90;;;;;;5127843;28;20047;-86
2023/10/01 09:14:18;;;;;;;10.85;6.45;;;17.80;99.90;;;;;;5072333;28;20078;-87
2023/10/01 09:16:46;;;;;;;13.43;7.20;;;18.00;99.90;;;;;;5088051;28;20036;-87
2023/10/01 09:19:34;;;;;;;11.88;6.65;;;18.10;99.90;;;;;;5091819;28;20055;-88
2023/10/01 09:25:25;;;;;;;18.83;6.90;;;18.20;99.90;;;;;;5091745;28;20051;-87
2023/10/01 09:27:59;;;;;;;11.85;7.18;;;18.30;99.90;;;;;;5091958;28;20054;-86
2023/10/01 09:30:26;;;;;;;12.35;6.50;;;18.40;99.90;;;;;;5077656;27;20782;-87
2023/10/01 09:33:14;;;;;;;13.25;6.20;;;18.60;99.90;;;;;;5108433;27;20070;-86
2023/10/01 09:35:49;;;;;;;11.85;6.90;;;18.90;99.90;;;;;;5095543;28;20048;-87
2023/10/01 09:38:19;;;;;;;11.65;6.22;;;19.00;99.90;;;;;;5098223;27;20051;-87
2023/10/01 09:40:47;;;;;;;11.73;6.55;;;19.10;99.90;;;;;;5110081;27;20059;-88
2023/10/01 09:43:24;;;;;;;12.80;6.57;;;19.10;99.90;;;;;;5120411;27;20401;-91
2023/10/01 09:45:51;;;;;;;13.32;6.82;;;19.20;99.90;;;;;;5086005;28;20039;-87
2023/10/01 09:48:35;;;;;;;14.27;6.88;;;19.80;99.90;;;;;;5100568;27;20042;-88
2023/10/01 09:51:13;;;;;;;13.00;6.55;;;19.10;99.90;;;;;;5110718;27;20051;-85
2023/10/01 09:53:53;;;;;;;12.90;6.72;;;19.20;99.90;;;;;;5097157;27;20091;-86
2023/10/01 09:56:26;;;;;;;11.25;5.72;;;19.30;99.90;;;;;;5109434;27;20549;-86
2023/10/01 09:59:01;;;;;;;15.73;6.55;;;19.40;99.90;;;;;;5110361;27;20058;-86
2023/10/01 10:01:27;;;;;;;10.57;6.03;;;19.60;99.90;;;;;;5105545;27;20458;-83
2023/10/01 10:03:57;;;;;;;16.02;7.03;;;19.60;99.90;;;;;;5089687;28;20086;-85
2023/10/01 10:06:25;;;;;;;11.27;6.18;;;19.60;99.90;;;;;;5090119;28;20154;-82
2023/10/01 10:09:03;;;;;;;14.98;6.68;;;19.80;99.90;;;;;;5112555;27;20076;-82
2023/10/01 10:11:46;;;;;;;12.65;6.60;;;19.60;99.90;;;;;;5110634;27;20422;-82
2023/10/01 10:14:26;;;;;;;12.32;7.32;;;19.70;99.90;;;;;;5099476;27;20108;-82
2023/10/01 10:16:56;;;;;;;13.65;6.82;;;19.60;99.90;;;;;;5091051;28;20062;-83
2023/10/01 10:19:22;;;;;;;13.68;7.22;;;19.60;99.90;;;;;;5092754;28;20104;-82
2023/10/01 10:24:46;;;;;;;14.43;6.55;;;20.10;99.90;;;;;;5102018;28;20052;-82
2023/10/01 10:27:17;;;;;;;12.25;6.90;;;19.50;99.90;;;;;;5091048;28;20043;-82
2023/10/01 10:29:57;;;;;;;13.05;6.97;;;20.00;99.90;;;;;;5093876;27;20066;-82
2023/10/01 10:32:26;;;;;;;12.25;6.93;;;19.50;99.90;;;;;;5103513;27;20162;-82
2023/10/01 10:35:04;;;;;;;11.20;7.25;;;19.60;99.90;;;;;;5110407;27;20054;-82
2023/10/01 10:37:56;;;;;;;10.98;6.72;;;20.00;99.90;;;;;;5090430;28;20040;-82
2023/10/01 10:40:22;;;;;;;12.43;6.60;;;19.50;99.90;;;;;;5090243;28;20069;-85
2023/10/01 10:43:00;;;;;;;13.88;7.00;;;19.80;99.90;;;;;;5090735;28;20051;-83
2023/10/01 10:45:43;;;;;;;13.32;6.88;;;19.50;99.90;;;;;;5072569;27;20040;-84
2023/10/01 10:48:21;;;;;;;12.73;6.38;;;19.60;99.90;;;;;;5098510;27;20047;-83
2023/10/01 10:50:57;;;;;;;13.52;6.50;;;19.80;99.90;;;;;;5091252;28;20055;-85
2023/10/01 10:53:24;;;;;;;14.10;6.85;;;20.20;99.90;;;;;;5090571;28;20070;-86
2023/10/01 10:56:00;;;;;;;11.00;6.45;;;20.50;99.90;;;;;;5090038;28;20047;-85
2023/10/01 10:58:28;;;;;;;12.77;6.82;;;20.40;99.90;;;;;;5104288;27;20122;-83
2023/10/01 11:01:15;;;;;;;12.50;6.80;;;20.30;99.90;;;;;;5110803;27;20051;-83
2023/10/01 11:03:48;;;;;;;12.77;6.70;;;20.90;99.90;;;;;;5080970;27;20088;-85
2023/10/01 11:06:21;;;;;;;13.40;7.10;;;20.50;99.90;;;;;;5080926;28;20494;-83
2023/10/01 11:08:53;;;;;;;13.30;6.80;;;20.50;99.90;;;;;;5128151;27;20043;-83
2023/10/01 11:11:41;;;;;;;11.77;7.63;;;21.40;99.90;;;;;;5110873;27;20401;-85
2023/10/01 11:14:17;;;;;;;14.38;6.40;;;20.60;99.90;;;;;;5129446;27;20087;-83
2023/10/01 11:16:44;;;;;;;15.13;6.88;;;21.10;99.90;;;;;;5111618;27;20392;-84
2023/10/01 11:19:14;;;;;;;9.65;6.63;;;20.70;99.90;;;;;;5103279;27;20534;-85
2023/10/01 11:22:08;;;;;;;13.82;6.85;;;21.00;99.90;;;;;;5110973;27;20409;-84
2023/10/01 11:24:36;;;;;;;14.60;6.90;;;20.90;99.90;;;;;;5107794;27;20156;-83
2023/10/01 11:27:25;;;;;;;14.32;7.05;;;21.10;99.90;;;;;;5111309;27;20069;-84
2023/10/01 11:29:59;;;;;;;11.57;6.80;;;21.30;99.90;;;;;;5117667;27;20498;-85
2023/10/01 11:35:32;;;;;;;12.27;6.70;;;21.50;99.90;;;;;;5090391;28;20047;-82
2023/10/01 11:38:20;;;;;;;15.32;7.15;;;21.60;99.90;;;;;;5103579;27;20043;-83
2023/10/01 11:43:45;;;;;;;13.70;7.40;;;21.80;99.90;;;;;;5099148;27;20057;-84
2023/10/01 11:46:23;;;;;;;12.20;6.97;;;21.60;99.90;;;;;;5093674;27;20048;-85
2023/10/01 11:49:08;;;;;;;12.25;6.32;;;21.50;99.90;;;;;;5107128;27;20118;-85
2023/10/01 11:51:54;;;;;;;13.07;7.35;;;21.50;99.90;;;;;;5073271;28;20504;-85
2023/10/01 11:54:21;;;;;;;11.02;6.18;;;22.10;99.90;;;;;;5112659;27;20040;-84
2023/10/01 11:57:07;;;;;;;12.45;6.68;;;21.50;99.90;;;;;;5074687;28;20521;-83
2023/10/01 11:59:35;;;;;;;12.27;6.78;;;21.50;99.90;;;;;;5094175;28;20037;-85
2023/10/01 12:02:25;;;;;;;11.57;6.45;;;21.90;99.90;;;;;;5073208;28;20051;-84
2023/10/01 12:04:58;;;;;;;14.02;6.70;;;21.90;99.90;;;;;;5093545;28;20079;-84
2023/10/01 12:07:40;;;;;;;13.00;6.93;;;21.70;99.90;;;;;;5128652;27;20039;-84
2023/10/01 12:10:06;;;;;;;;;;;21.80;99.90;;;;;;5103969;28;20051;-85
2023/10/01 12:12:36;;;;;;;13.13;6.70;;;21.80;99.90;;;;;;5110873;28;19973;-85
2023/10/01 12:17:57;;;;;;;12.50;6.57;;;21.80;99.90;;;;;;5090174;28;20054;-85
2023/10/01 12:20:23;;;;;;;11.18;6.75;;;21.90;99.90;;;;;;5089946;28;20514;-85
2023/10/01 12:23:11;;;;;;;11.52;6.30;;;21.90;99.90;;;;;;5103961;28;20054;-85
2023/10/01 12:25:51;;;;;;;12.43;6.90;;;22.00;99.90;;;;;;5090054;28;20044;-85
2023/10/01 12:28:27;;;;;;;10.23;6.03;;;22.30;99.90;;;;;;5108462;28;20043;-84
2023/10/01 12:30:57;;;;;;;11.00;6.60;;;22.10;99.90;;;;;;5091810;28;20051;-84
2023/10/01 12:33:40;;;;;;;12.50;6.20;;;22.20;99.90;;;;;;5110749;28;20051;-83
2023/10/01 12:46:54;;;;;;;9.27;6.10;;;22.40;99.90;;;;;;5128474;28;20051;-85
2023/10/01 12:49:20;;;;;;;10.18;6.13;;;22.40;99.90;;;;;;5079038;28;20136;-83
2023/10/01 12:51:53;;;;;;;11.40;6.50;;;22.50;99.90;;;;;;5106722;28;20051;-85
2023/10/01 12:54:22;;;;;;;10.68;5.65;;;22.50;99.90;;;;;;5110092;28;20521;-82
2023/10/01 12:57:01;;;;;;;11.43;6.28;;;22.50;99.90;;;;;;5111290;27;20050;-86
2023/10/01 12:59:40;;;;;;;10.05;5.93;;;23.00;99.90;;;;;;5125598;27;20440;-87
2023/10/01 13:02:28;;;;;;;9.38;5.68;;;22.90;99.90;;;;;;5112932;27;20039;-86
2023/10/01 13:05:17;;;;;;;9.70;5.55;;;22.50;99.90;;;;;;5111410;28;20146;-85
2023/10/01 13:07:45;;;;;;;9.15;5.85;;;21.90;99.90;;;;;;5092435;28;20059;-88
2023/10/01 13:10:12;;;;;;;10.85;6.00;;;22.50;99.90;;;;;;5108671;27;20119;-87
2023/10/01 13:12:39;;;;;;;9.52;5.55;;;22.50;99.90;;;;;;5100376;28;20498;-86
2023/10/01 13:15:16;;;;;;;9.70;6.40;;;22.30;99.90;;;;;;5094142;28;20044;-87
2023/10/01 13:17:43;;;;;;;9.90;5.85;;;22.30;99.90;;;;;;5096672;28;20093;-86
2023/10/01 13:20:26;;;;;;;11.18;5.90;;;22.40;99.90;;;;;;5101127;27;20126;-86
2023/10/01 13:22:53;;;;;;;10.52;5.50;;;22.20;99.90;;;;;;5089788;27;20487;-86
2023/10/01 13:25:24;;;;;;;12.10;6.13;;;22.30;99.90;;;;;;5075430;28;20154;-87
2023/10/01 13:28:01;;;;;;;;;;;22.70;99.90;;;;;;5080431;27;20035;-87
2023/10/01 13:30:31;;;;;;;9.43;5.65;;;22.20;99.90;;;;;;5098426;28;19927;-87
2023/10/01 13:33:14;;;;;;;11.48;6.10;;;22.20;99.90;;;;;;5093732;28;20047;-88
2023/10/01 13:35:58;;;;;;;9.98;5.75;;;22.10;99.90;;;;;;5093167;28;20047;-87
2023/10/01 14:11:27;;;;;;;11.10;6.30;;;22.60;99.90;;;;;;5062021;28;20048;-87
2023/10/01 14:13:53;;;;;;;10.82;5.93;;;22.80;99.90;;;;;;5045816;28;20048;-86
2023/10/01 14:16:22;;;;;;;11.07;6.32;;;22.30;99.90;;;;;;5086811;28;20053;-87
2023/10/01 14:18:53;;;;;;;11.05;6.25;;;22.70;99.90;;;;;;5092162;28;20097;-87
2023/10/01 14:21:27;;;;;;;11.05;5.85;;;22.50;99.90;;;;;;5091627;28;20079;-85
2023/10/01 14:23:57;;;;;;;10.05;5.82;;;22.30;99.90;;;;;;5091824;28;20049;-85
2023/10/01 14:26:33;;;;;;;12.23;6.15;;;22.20;99.90;;;;;;5082444;27;20143;-85
2023/10/01 14:28:59;;;;;;;10.85;5.85;;;22.60;99.90;;;;;;5100068;27;20066;-85